createdAt,value
2016-12-27T00:00:17.636Z,1027.33
2016-12-27T00:01:39.497Z,1027.37
2016-12-27T00:03:01.259Z,1027.38
2016-12-27T00:04:23.044Z,1027.44
2016-12-27T00:05:44.792Z,1027.46
2016-12-27T00:07:07.216Z,1027.46
2016-12-27T00:08:29.278Z,1027.47
2016-12-27T00:09:51.372Z,1027.44
2016-12-27T00:11:13.193Z,1027.34
2016-12-27T00:12:34.684Z,1027.45
2016-12-27T00:13:56.820Z,1027.39
2016-12-27T00:15:18.897Z,1027.37
2016-12-27T00:16:40.643Z,1027.4
2016-12-27T00:18:03.006Z,1027.38
2016-12-27T00:19:24.835Z,1027.32
2016-12-27T00:20:45.655Z,1027.4
2016-12-27T00:22:07.703Z,1027.31
2016-12-27T00:23:29.890Z,1027.32
2016-12-27T00:24:51.104Z,1027.3
2016-12-27T00:26:13.276Z,1027.23
2016-12-27T00:27:35.348Z,1027.36
2016-12-27T00:28:56.848Z,1027.3
2016-12-27T00:30:18.485Z,1027.31
2016-12-27T00:31:39.955Z,1027.36
2016-12-27T00:33:01.147Z,1027.38
2016-12-27T00:34:23.208Z,1027.41
2016-12-27T00:35:45.009Z,1027.46
2016-12-27T00:37:07.130Z,1027.34
2016-12-27T00:38:30.479Z,1027.41
2016-12-27T00:39:52.560Z,1027.45
2016-12-27T00:41:14.323Z,1027.46
2016-12-27T00:42:36.098Z,1027.42
2016-12-27T00:43:58.168Z,1027.52
2016-12-27T00:45:20.570Z,1027.54
2016-12-27T00:46:42.683Z,1027.53
2016-12-27T00:48:05.211Z,1027.56
2016-12-27T00:49:27.260Z,1027.59
2016-12-27T00:50:49.021Z,1027.68
2016-12-27T00:52:10.482Z,1027.68
2016-12-27T00:53:31.612Z,1027.69
2016-12-27T00:54:54.068Z,1027.68
2016-12-27T00:56:15.626Z,1027.72
2016-12-27T00:57:37.381Z,1027.79
2016-12-27T00:58:59.503Z,1027.77
2016-12-27T01:00:21.273Z,1027.8
2016-12-27T01:01:43.364Z,1027.8
2016-12-27T01:03:04.803Z,1027.77
2016-12-27T01:04:27.171Z,1027.9
2016-12-27T01:05:49.229Z,1027.9
2016-12-27T01:07:10.690Z,1027.9
2016-12-27T01:08:32.759Z,1027.96
2016-12-27T01:09:54.822Z,1027.91
2016-12-27T01:11:17.282Z,1027.91
2016-12-27T01:12:39.136Z,1027.99
2016-12-27T01:14:01.210Z,1028.06
2016-12-27T01:15:23.069Z,1028.07
2016-12-27T01:16:44.528Z,1028.08
2016-12-27T01:18:05.979Z,1028.1
2016-12-27T01:19:28.130Z,1028.16
2016-12-27T01:20:49.870Z,1028.18
2016-12-27T01:22:11.620Z,1028.2
2016-12-27T01:23:33.172Z,1028.17
2016-12-27T01:24:55.232Z,1028.21
2016-12-27T01:26:16.669Z,1028.29
2016-12-27T01:27:38.116Z,1028.33
2016-12-27T01:28:59.549Z,1028.39
2016-12-27T01:30:21.369Z,1028.38
2016-12-27T01:31:42.913Z,1028.42
2016-12-27T01:33:04.670Z,1028.39
2016-12-27T01:34:26.839Z,1028.45
2016-12-27T01:35:48.442Z,1028.4
2016-12-27T01:37:10.263Z,1028.37
2016-12-27T01:38:32.652Z,1028.43
2016-12-27T01:39:54.821Z,1028.46
2016-12-27T01:41:16.256Z,1028.48
2016-12-27T01:42:38.396Z,1028.54
2016-12-27T01:44:00.614Z,1028.58
2016-12-27T01:45:22.681Z,1028.56
2016-12-27T01:46:44.132Z,1028.62
2016-12-27T01:48:05.892Z,1028.69
2016-12-27T01:49:27.967Z,1028.7
2016-12-27T01:50:50.100Z,1028.73
2016-12-27T01:52:12.023Z,1028.65
2016-12-27T01:53:33.882Z,1028.7
2016-12-27T01:54:56.254Z,1028.69
2016-12-27T01:56:17.721Z,1028.71
2016-12-27T01:57:39.763Z,1028.6
2016-12-27T01:59:00.942Z,1028.66
2016-12-27T02:00:22.739Z,1028.67
2016-12-27T02:01:44.821Z,1028.72
2016-12-27T02:03:05.662Z,1028.76
2016-12-27T02:04:27.733Z,1028.82
2016-12-27T02:05:49.171Z,1028.72
2016-12-27T02:07:11.042Z,1028.77
2016-12-27T02:08:33.424Z,1028.88
2016-12-27T02:09:55.222Z,1028.92
2016-12-27T02:11:17.278Z,1028.89
2016-12-27T02:12:38.733Z,1028.88
2016-12-27T02:14:00.783Z,1028.95
2016-12-27T02:15:22.370Z,1028.95
2016-12-27T02:16:44.192Z,1029
2016-12-27T02:18:05.682Z,1028.98
2016-12-27T02:19:27.724Z,1028.98
2016-12-27T02:20:49.494Z,1028.99
2016-12-27T02:22:11.270Z,1028.99
2016-12-27T02:23:33.447Z,1029
2016-12-27T02:24:54.864Z,1029.05
2016-12-27T02:26:16.955Z,1029.1
2016-12-27T02:27:38.694Z,1029.11
2016-12-27T02:29:00.438Z,1029.1
2016-12-27T02:30:21.684Z,1029.15
2016-12-27T02:31:44.252Z,1029.04
2016-12-27T02:33:05.691Z,1029.09
2016-12-27T02:34:27.464Z,1029
2016-12-27T02:35:48.935Z,1029.13
2016-12-27T02:37:10.364Z,1029.12
2016-12-27T02:38:32.427Z,1029.13
2016-12-27T02:39:54.479Z,1029.16
2016-12-27T02:41:16.650Z,1029.16
2016-12-27T02:42:38.078Z,1029.22
2016-12-27T02:44:00.637Z,1029.19
2016-12-27T02:45:22.698Z,1029.23
2016-12-27T02:46:45.262Z,1029.21
2016-12-27T02:48:07.122Z,1029.27
2016-12-27T02:49:28.882Z,1029.29
2016-12-27T02:50:50.417Z,1029.34
2016-12-27T02:52:12.931Z,1029.36
2016-12-27T02:53:34.972Z,1029.28
2016-12-27T02:54:56.093Z,1029.26
2016-12-27T02:56:17.851Z,1029.37
2016-12-27T02:57:39.924Z,1029.32
2016-12-27T02:59:02.014Z,1029.4
2016-12-27T03:00:23.774Z,1029.42
2016-12-27T03:01:45.564Z,1029.44
2016-12-27T03:03:07.380Z,1029.5
2016-12-27T03:04:28.823Z,1029.49
2016-12-27T03:05:50.562Z,1029.47
2016-12-27T03:07:11.981Z,1029.61
2016-12-27T03:08:33.443Z,1029.64
2016-12-27T03:09:54.884Z,1029.57
2016-12-27T03:11:16.709Z,1029.57
2016-12-27T03:12:37.941Z,1029.65
2016-12-27T03:13:59.419Z,1029.68
2016-12-27T03:15:21.873Z,1029.65
2016-12-27T03:16:43.702Z,1029.63
2016-12-27T03:18:05.451Z,1029.58
2016-12-27T03:19:27.185Z,1029.53
2016-12-27T03:20:49.238Z,1029.53
2016-12-27T03:22:11.069Z,1029.52
2016-12-27T03:23:33.120Z,1029.42
2016-12-27T03:24:54.930Z,1029.56
2016-12-27T03:26:16.376Z,1029.58
2016-12-27T03:27:38.180Z,1029.63
2016-12-27T03:29:00.581Z,1029.55
2016-12-27T03:30:22.029Z,1029.53
2016-12-27T03:31:43.786Z,1029.6
2016-12-27T03:33:05.427Z,1029.6
2016-12-27T03:34:27.811Z,1029.64
2016-12-27T03:35:49.299Z,1029.61
2016-12-27T03:37:10.787Z,1029.69
2016-12-27T03:38:32.558Z,1029.64
2016-12-27T03:39:54.671Z,1029.64
2016-12-27T03:41:16.731Z,1029.61
2016-12-27T03:42:38.658Z,1029.66
2016-12-27T03:44:00.466Z,1029.8
2016-12-27T03:45:22.530Z,1029.68
2016-12-27T03:46:43.994Z,1029.79
2016-12-27T03:48:05.120Z,1029.82
2016-12-27T03:49:26.938Z,1029.79
2016-12-27T03:50:48.711Z,1029.91
2016-12-27T03:52:10.550Z,1029.86
2016-12-27T03:53:32.665Z,1029.86
2016-12-27T03:54:54.548Z,1029.82
2016-12-27T03:56:15.988Z,1029.82
2016-12-27T03:57:38.039Z,1029.89
2016-12-27T03:58:59.849Z,1029.9
2016-12-27T04:00:21.967Z,1029.85
2016-12-27T04:01:44.039Z,1029.96
2016-12-27T04:03:05.464Z,1030
2016-12-27T04:04:26.903Z,1029.93
2016-12-27T04:05:48.464Z,1030.01
2016-12-27T04:07:10.288Z,1029.99
2016-12-27T04:08:32.355Z,1029.91
2016-12-27T04:09:54.435Z,1030.05
2016-12-27T04:11:16.848Z,1029.97
2016-12-27T04:12:38.597Z,1029.97
2016-12-27T04:14:00.705Z,1030.03
2016-12-27T04:15:22.528Z,1030.01
2016-12-27T04:16:44.266Z,1030.04
2016-12-27T04:18:05.704Z,1030.04
2016-12-27T04:19:27.468Z,1029.96
2016-12-27T04:20:49.215Z,1030.06
2016-12-27T04:22:10.947Z,1030.08
2016-12-27T04:23:32.471Z,1030.12
2016-12-27T04:24:54.245Z,1030.14
2016-12-27T04:26:15.657Z,1030.09
2016-12-27T04:27:38.111Z,1029.96
2016-12-27T04:28:59.266Z,1029.97
2016-12-27T04:30:21.050Z,1030.04
2016-12-27T04:31:42.909Z,1030.04
2016-12-27T04:33:04.709Z,1030.07
2016-12-27T04:34:26.759Z,1030.07
2016-12-27T04:35:48.584Z,1030.13
2016-12-27T04:37:10.013Z,1030.17
2016-12-27T04:38:32.180Z,1030.22
2016-12-27T04:39:54.231Z,1030.23
2016-12-27T04:41:16.100Z,1030.3
2016-12-27T04:42:37.849Z,1030.27
2016-12-27T04:44:00.350Z,1030.28
2016-12-27T04:45:22.112Z,1030.26
2016-12-27T04:46:44.160Z,1030.36
2016-12-27T04:48:05.592Z,1030.32
2016-12-27T04:49:27.768Z,1030.46
2016-12-27T04:50:49.843Z,1030.49
2016-12-27T04:52:12.216Z,1030.48
2016-12-27T04:53:34.021Z,1030.56
2016-12-27T04:54:55.473Z,1030.54
2016-12-27T04:56:17.531Z,1030.55
2016-12-27T04:57:39.330Z,1030.54
2016-12-27T04:59:01.400Z,1030.61
2016-12-27T05:00:23.465Z,1030.64
2016-12-27T05:01:45.028Z,1030.66
2016-12-27T05:03:06.783Z,1030.62
2016-12-27T05:04:28.353Z,1030.66
2016-12-27T05:05:50.191Z,1030.7
2016-12-27T05:07:11.813Z,1030.75
2016-12-27T05:08:33.003Z,1030.75
2016-12-27T05:09:54.754Z,1030.75
2016-12-27T05:11:17.349Z,1030.82
2016-12-27T05:12:39.714Z,1030.85
2016-12-27T05:14:01.522Z,1030.88
2016-12-27T05:15:23.321Z,1030.97
2016-12-27T05:16:44.768Z,1030.99
2016-12-27T05:18:06.576Z,1030.93
2016-12-27T05:19:28.047Z,1030.95
2016-12-27T05:20:49.491Z,1030.97
2016-12-27T05:22:11.222Z,1031.01
2016-12-27T05:23:32.731Z,1031.03
2016-12-27T05:24:54.337Z,1030.99
2016-12-27T05:26:15.491Z,1030.98
2016-12-27T05:27:36.794Z,1030.95
2016-12-27T05:28:58.879Z,1031.01
2016-12-27T05:30:20.310Z,1030.99
2016-12-27T05:31:42.562Z,1031.02
2016-12-27T05:33:04.720Z,1031
2016-12-27T05:34:26.471Z,1031.02
2016-12-27T05:35:48.884Z,1030.99
2016-12-27T05:37:10.653Z,1031.03
2016-12-27T05:38:32.429Z,1031.13
2016-12-27T05:39:54.160Z,1031.05
2016-12-27T05:41:16.284Z,1031.14
2016-12-27T05:42:38.036Z,1031.18
2016-12-27T05:43:59.877Z,1031.31
2016-12-27T05:45:21.002Z,1031.25
2016-12-27T05:46:42.759Z,1031.32
2016-12-27T05:48:03.889Z,1031.25
2016-12-27T05:49:25.940Z,1031.28
2016-12-27T05:50:47.719Z,1031.3
2016-12-27T05:52:09.203Z,1031.27
2016-12-27T05:53:30.979Z,1031.33
2016-12-27T05:54:53.130Z,1031.28
2016-12-27T05:56:14.578Z,1031.27
2016-12-27T05:57:35.760Z,1031.23
2016-12-27T05:58:57.618Z,1031.29
2016-12-27T06:00:19.661Z,1031.27
2016-12-27T06:01:41.410Z,1031.32
2016-12-27T06:03:02.551Z,1031.31
2016-12-27T06:04:24.915Z,1031.39
2016-12-27T06:05:46.340Z,1031.4
2016-12-27T06:07:08.708Z,1031.44
2016-12-27T06:08:30.882Z,1031.49
2016-12-27T06:09:52.304Z,1031.48
2016-12-27T06:11:13.432Z,1031.47
2016-12-27T06:12:35.520Z,1031.42
2016-12-27T06:13:56.970Z,1031.41
2016-12-27T06:15:19.020Z,1031.35
2016-12-27T06:16:40.886Z,1031.52
2016-12-27T06:18:02.617Z,1031.61
2016-12-27T06:19:24.352Z,1031.6
2016-12-27T06:20:46.092Z,1031.58
2016-12-27T06:22:07.541Z,1031.7
2016-12-27T06:23:29.155Z,1031.68
2016-12-27T06:24:51.642Z,1031.73
2016-12-27T06:26:13.774Z,1031.74
2016-12-27T06:27:36.142Z,1031.79
2016-12-27T06:28:58.204Z,1031.84
2016-12-27T06:30:19.636Z,1031.89
2016-12-27T06:31:41.445Z,1031.89
2016-12-27T06:33:03.494Z,1031.85
2016-12-27T06:34:25.007Z,1031.92
2016-12-27T06:35:46.745Z,1031.93
2016-12-27T06:37:08.821Z,1031.95
2016-12-27T06:38:30.025Z,1032.01
2016-12-27T06:39:52.113Z,1031.95
2016-12-27T06:41:13.896Z,1031.86
2016-12-27T06:42:35.676Z,1031.86
2016-12-27T06:43:57.339Z,1031.84
2016-12-27T06:45:19.114Z,1031.81
2016-12-27T06:46:40.570Z,1031.78
2016-12-27T06:48:02.010Z,1031.9
2016-12-27T06:49:24.073Z,1031.87
2016-12-27T06:50:46.265Z,1031.88
2016-12-27T06:52:07.704Z,1031.96
2016-12-27T06:53:29.444Z,1031.89
2016-12-27T06:54:50.871Z,1031.93
2016-12-27T06:56:12.405Z,1031.98
2016-12-27T06:57:34.176Z,1032.12
2016-12-27T06:58:55.924Z,1032.08
2016-12-27T07:00:17.365Z,1032.11
2016-12-27T07:01:39.084Z,1032.19
2016-12-27T07:03:01.146Z,1032.16
2016-12-27T07:04:23.293Z,1032.3
2016-12-27T07:05:44.738Z,1032.33
2016-12-27T07:07:06.549Z,1032.34
2016-12-27T07:08:27.986Z,1032.42
2016-12-27T07:09:49.737Z,1032.36
2016-12-27T07:11:11.375Z,1032.35
2016-12-27T07:12:33.113Z,1032.36
2016-12-27T07:13:54.934Z,1032.38
2016-12-27T07:15:16.694Z,1032.4
2016-12-27T07:16:38.489Z,1032.48
2016-12-27T07:17:59.923Z,1032.33
2016-12-27T07:19:53.641Z,1032.44
2016-12-27T07:21:15.086Z,1032.43
2016-12-27T07:22:36.971Z,1032.43
2016-12-27T07:23:58.767Z,1032.55
2016-12-27T07:25:20.644Z,1032.53
2016-12-27T07:26:41.934Z,1032.38
2016-12-27T07:28:03.427Z,1032.36
2016-12-27T07:29:25.177Z,1032.33
2016-12-27T07:30:46.614Z,1032.37
2016-12-27T07:32:08.372Z,1032.41
2016-12-27T07:33:29.813Z,1032.38
2016-12-27T07:34:51.266Z,1032.49
2016-12-27T07:36:13.481Z,1032.47
2016-12-27T07:37:35.038Z,1032.6
2016-12-27T07:38:57.235Z,1032.67
2016-12-27T07:40:19.308Z,1032.7
2016-12-27T07:41:41.353Z,1032.64
2016-12-27T07:43:02.504Z,1032.73
2016-12-27T07:44:24.245Z,1032.7
2016-12-27T07:45:46.012Z,1032.78
2016-12-27T07:47:07.504Z,1032.74
2016-12-27T07:48:29.373Z,1032.82
2016-12-27T07:49:50.865Z,1032.81
2016-12-27T07:51:12.301Z,1032.86
2016-12-27T07:52:34.039Z,1032.89
2016-12-27T07:53:55.533Z,1032.91
2016-12-27T07:55:17.044Z,1032.91
2016-12-27T07:56:38.804Z,1033.04
2016-12-27T07:58:00.243Z,1033.1
2016-12-27T07:59:21.977Z,1033.09
2016-12-27T08:00:44.102Z,1033.06
2016-12-27T08:02:05.311Z,1033.21
2016-12-27T08:03:27.072Z,1033.07
2016-12-27T08:04:48.875Z,1033.17
2016-12-27T08:06:11.252Z,1033.08
2016-12-27T08:07:33.725Z,1033.03
2016-12-27T08:08:55.792Z,1033.1
2016-12-27T08:10:17.649Z,1033.02
2016-12-27T08:11:39.172Z,1033.11
2016-12-27T08:13:01.593Z,1033.19
2016-12-27T08:14:22.754Z,1033.09
2016-12-27T08:15:44.953Z,1033.12
2016-12-27T08:17:06.415Z,1033.08
2016-12-27T08:18:28.174Z,1033.08
2016-12-27T08:19:49.937Z,1033.14
2016-12-27T08:21:11.802Z,1033.21
2016-12-27T08:22:33.945Z,1033.25
2016-12-27T08:23:56.321Z,1033.37
2016-12-27T08:25:18.462Z,1033.31
2016-12-27T08:26:39.892Z,1033.34
2016-12-27T08:28:01.701Z,1033.38
2016-12-27T08:29:23.484Z,1033.46
2016-12-27T08:30:45.576Z,1033.43
2016-12-27T08:32:07.071Z,1033.51
2016-12-27T08:33:28.813Z,1033.64
2016-12-27T08:34:50.932Z,1033.52
2016-12-27T08:36:12.819Z,1033.57
2016-12-27T08:37:34.894Z,1033.61
2016-12-27T08:38:57.133Z,1033.63
2016-12-27T08:40:19.203Z,1033.71
2016-12-27T08:41:41.008Z,1033.76
2016-12-27T08:43:03.434Z,1033.77
2016-12-27T08:44:25.816Z,1033.85
2016-12-27T08:45:47.703Z,1033.86
2016-12-27T08:47:09.788Z,1033.85
2016-12-27T08:48:30.962Z,1034.02
2016-12-27T08:49:52.714Z,1034.04
2016-12-27T08:51:14.934Z,1034.1
2016-12-27T08:52:36.702Z,1034.13
2016-12-27T08:53:58.954Z,1034.14
2016-12-27T08:55:21.319Z,1034.2
2016-12-27T08:56:43.484Z,1034.25
2016-12-27T08:58:05.596Z,1034.28
2016-12-27T08:59:27.744Z,1034.28
2016-12-27T09:00:49.586Z,1034.35
2016-12-27T09:02:11.031Z,1034.48
2016-12-27T09:03:33.124Z,1034.48
2016-12-27T09:04:54.561Z,1034.44
2016-12-27T09:06:16.084Z,1034.45
2016-12-27T09:07:37.556Z,1034.45
2016-12-27T09:08:59.933Z,1034.45
2016-12-27T09:10:21.480Z,1034.55
2016-12-27T09:11:42.637Z,1034.49
2016-12-27T09:13:04.395Z,1034.57
2016-12-27T09:14:58.932Z,1034.51
2016-12-27T09:16:20.685Z,1034.55
2016-12-27T09:17:42.828Z,1034.58
2016-12-27T09:19:04.643Z,1034.64
2016-12-27T09:20:26.739Z,1034.6
2016-12-27T09:21:47.958Z,1034.66
2016-12-27T09:23:09.718Z,1034.73
2016-12-27T09:24:30.854Z,1034.79
2016-12-27T09:25:52.322Z,1034.86
2016-12-27T09:27:14.403Z,1034.82
2016-12-27T09:28:35.816Z,1034.8
2016-12-27T09:29:57.256Z,1034.69
2016-12-27T09:31:19.004Z,1034.77
2016-12-27T09:32:41.444Z,1034.81
2016-12-27T09:34:03.502Z,1034.86
2016-12-27T09:35:25.294Z,1034.83
2016-12-27T09:36:46.833Z,1034.91
2016-12-27T09:38:08.582Z,1034.8
2016-12-27T09:39:30.988Z,1034.94
2016-12-27T09:40:52.722Z,1034.95
2016-12-27T09:42:14.842Z,1035.01
2016-12-27T09:43:36.330Z,1034.97
2016-12-27T09:44:58.423Z,1034.97
2016-12-27T09:46:20.484Z,1035.01
2016-12-27T09:47:42.221Z,1034.99
2016-12-27T09:49:03.705Z,1034.96
2016-12-27T09:50:25.242Z,1035
2016-12-27T09:51:47.357Z,1034.91
2016-12-27T09:53:09.745Z,1034.94
2016-12-27T09:54:31.522Z,1034.98
2016-12-27T09:55:53.583Z,1035.07
2016-12-27T09:57:15.443Z,1035.08
2016-12-27T09:58:37.642Z,1035.23
2016-12-27T09:59:59.463Z,1035.23
2016-12-27T10:01:20.833Z,1035.31
2016-12-27T10:02:42.996Z,1035.22
2016-12-27T10:04:05.052Z,1035.26
2016-12-27T10:05:26.505Z,1035.32
2016-12-27T10:06:48.285Z,1035.41
2016-12-27T10:08:10.387Z,1035.51
2016-12-27T10:09:32.551Z,1035.45
2016-12-27T10:10:54.628Z,1035.45
2016-12-27T10:12:16.494Z,1035.42
2016-12-27T10:13:38.241Z,1035.49
2016-12-27T10:15:00.343Z,1035.36
2016-12-27T10:16:22.738Z,1035.43
2016-12-27T10:17:44.860Z,1035.37
2016-12-27T10:19:06.332Z,1035.45
2016-12-27T10:20:28.677Z,1035.42
2016-12-27T10:21:50.742Z,1035.32
2016-12-27T10:23:12.913Z,1035.33
2016-12-27T10:24:34.670Z,1035.27
2016-12-27T10:25:55.522Z,1035.32
2016-12-27T10:27:17.902Z,1035.36
2016-12-27T10:28:39.992Z,1035.46
2016-12-27T10:30:02.102Z,1035.34
2016-12-27T10:31:23.909Z,1035.38
2016-12-27T10:32:45.737Z,1035.63
2016-12-27T10:34:07.812Z,1035.51
2016-12-27T10:35:30.014Z,1035.54
2016-12-27T10:36:52.345Z,1035.6
2016-12-27T10:38:14.096Z,1035.66
2016-12-27T10:39:36.186Z,1035.55
2016-12-27T10:40:57.941Z,1035.54
2016-12-27T10:42:19.374Z,1035.58
2016-12-27T10:43:40.850Z,1035.62
2016-12-27T10:45:02.610Z,1035.62
2016-12-27T10:46:24.415Z,1035.55
2016-12-27T10:47:45.839Z,1035.62
2016-12-27T10:49:08.347Z,1035.59
2016-12-27T10:50:30.150Z,1035.58
2016-12-27T10:51:52.052Z,1035.62
2016-12-27T10:53:13.929Z,1035.68
2016-12-27T10:54:36.329Z,1035.65
2016-12-27T10:55:58.399Z,1035.72
2016-12-27T10:57:20.176Z,1035.8
2016-12-27T10:58:41.943Z,1035.78
2016-12-27T11:00:03.777Z,1035.87
2016-12-27T11:01:25.547Z,1035.96
2016-12-27T11:02:47.084Z,1035.98
2016-12-27T11:04:08.849Z,1035.96
2016-12-27T11:05:30.666Z,1036.03
2016-12-27T11:06:52.420Z,1035.97
2016-12-27T11:08:14.535Z,1035.88
2016-12-27T11:09:36.606Z,1035.94
2016-12-27T11:10:58.356Z,1035.82
2016-12-27T11:12:20.116Z,1036.08
2016-12-27T11:13:41.306Z,1035.97
2016-12-27T11:15:03.055Z,1036.09
2016-12-27T11:16:24.198Z,1036.11
2016-12-27T11:17:46.586Z,1036.01
2016-12-27T11:19:08.643Z,1036.01
2016-12-27T11:20:31.103Z,1036.22
2016-12-27T11:21:52.882Z,1036.06
2016-12-27T11:23:14.752Z,1036.02
2016-12-27T11:24:36.236Z,1036.2
2016-12-27T11:25:57.371Z,1036.12
2016-12-27T11:27:18.820Z,1036.2
2016-12-27T11:28:40.578Z,1036.29
2016-12-27T11:30:02.026Z,1036.22
2016-12-27T11:31:23.776Z,1036.3
2016-12-27T11:32:45.837Z,1036.44
2016-12-27T11:34:07.292Z,1036.4
2016-12-27T11:35:29.442Z,1036.44
2016-12-27T11:36:50.576Z,1036.31
2016-12-27T11:38:12.973Z,1036.19
2016-12-27T11:39:35.039Z,1036.28
2016-12-27T11:40:56.804Z,1036.34
2016-12-27T11:42:18.266Z,1036.3
2016-12-27T11:43:40.169Z,1036.36
2016-12-27T11:45:01.916Z,1036.33
2016-12-27T11:46:23.998Z,1036.39
2016-12-27T11:47:45.479Z,1036.43
2016-12-27T11:49:07.243Z,1036.65
2016-12-27T11:50:28.718Z,1036.6
2016-12-27T11:51:51.109Z,1036.63
2016-12-27T11:53:13.208Z,1036.63
2016-12-27T11:54:34.760Z,1036.75
2016-12-27T11:55:56.619Z,1037.07
2016-12-27T11:57:18.470Z,1036.76
2016-12-27T11:58:40.239Z,1036.77
2016-12-27T12:00:02.681Z,1036.8
2016-12-27T12:01:24.154Z,1036.75
2016-12-27T12:02:45.903Z,1036.99
2016-12-27T12:04:08.002Z,1036.87
2016-12-27T12:05:29.442Z,1037
2016-12-27T12:06:51.933Z,1036.93
2016-12-27T12:08:14.037Z,1036.97
2016-12-27T12:09:36.133Z,1037.04
2016-12-27T12:10:57.895Z,1036.96
2016-12-27T12:12:20.293Z,1036.89
2016-12-27T12:13:42.170Z,1036.86
2016-12-27T12:15:04.250Z,1036.87
2016-12-27T12:16:26.826Z,1036.83
2016-12-27T12:17:48.989Z,1036.74
2016-12-27T12:19:10.754Z,1036.9
2016-12-27T12:20:33.270Z,1037.08
2016-12-27T12:21:55.660Z,1036.84
2016-12-27T12:23:17.416Z,1036.94
2016-12-27T12:24:39.974Z,1036.99
2016-12-27T12:26:01.742Z,1037.18
2016-12-27T12:27:24.149Z,1036.97
2016-12-27T12:28:46.533Z,1037
2016-12-27T12:30:08.630Z,1037.03
2016-12-27T12:31:30.444Z,1037.05
2016-12-27T12:32:52.860Z,1037.13
2016-12-27T12:34:14.333Z,1037.09
2016-12-27T12:35:35.772Z,1037.22
2016-12-27T12:36:58.184Z,1037.27
2016-12-27T12:38:19.951Z,1037.05
2016-12-27T12:39:41.783Z,1037.09
2016-12-27T12:41:04.188Z,1037.11
2016-12-27T12:42:26.280Z,1037.04
2016-12-27T12:43:48.352Z,1037.18
2016-12-27T12:45:10.091Z,1037.22
2016-12-27T12:46:31.522Z,1037.15
2016-12-27T12:47:53.608Z,1037.16
2016-12-27T12:49:14.778Z,1037.16
2016-12-27T12:50:36.906Z,1037.21
2016-12-27T12:51:59.281Z,1037.07
2016-12-27T12:53:21.516Z,1037.12
2016-12-27T12:54:43.305Z,1037.26
2016-12-27T12:56:05.675Z,1037.16
2016-12-27T12:57:28.098Z,1037.22
2016-12-27T12:58:50.450Z,1037.34
2016-12-27T13:00:12.217Z,1037.31
2016-12-27T13:01:34.317Z,1037.31
2016-12-27T13:02:56.071Z,1037.4
2016-12-27T13:04:18.168Z,1037.3
2016-12-27T13:05:40.240Z,1037.41
2016-12-27T13:07:02.300Z,1037.41
2016-12-27T13:08:24.440Z,1037.4
2016-12-27T13:09:46.825Z,1037.45
2016-12-27T13:11:08.883Z,1037.55
2016-12-27T13:12:30.667Z,1037.5
2016-12-27T13:13:52.904Z,1037.54
2016-12-27T13:15:15.250Z,1037.48
2016-12-27T13:16:37.660Z,1037.61
2016-12-27T13:17:59.731Z,1037.59
2016-12-27T13:19:21.808Z,1037.63
2016-12-27T13:20:43.262Z,1037.62
2016-12-27T13:22:04.758Z,1037.61
2016-12-27T13:23:27.340Z,1037.78
2016-12-27T13:24:49.739Z,1037.52
2016-12-27T13:26:11.820Z,1037.68
2016-12-27T13:27:33.907Z,1037.54
2016-12-27T13:28:55.985Z,1037.7
2016-12-27T13:30:17.773Z,1037.65
2016-12-27T13:31:39.529Z,1037.65
2016-12-27T13:33:01.608Z,1037.68
2016-12-27T13:34:23.368Z,1037.61
2016-12-27T13:35:45.742Z,1037.64
2016-12-27T13:37:07.520Z,1037.59
2016-12-27T13:38:29.908Z,1037.52
2016-12-27T13:39:52.014Z,1037.53
2016-12-27T13:41:14.200Z,1037.53
2016-12-27T13:42:35.979Z,1037.51
2016-12-27T13:43:57.242Z,1037.5
2016-12-27T13:45:19.393Z,1037.62
2016-12-27T13:46:41.470Z,1037.7
2016-12-27T13:48:03.555Z,1037.71
2016-12-27T13:49:25.724Z,1037.72
2016-12-27T13:50:47.219Z,1037.62
2016-12-27T13:52:09.684Z,1037.86
2016-12-27T13:53:32.114Z,1037.79
2016-12-27T13:54:54.181Z,1037.81
2016-12-27T13:56:16.242Z,1037.87
2016-12-27T13:57:38.314Z,1037.99
2016-12-27T13:59:00.385Z,1037.91
2016-12-27T14:00:22.154Z,1038.01
2016-12-27T14:01:44.241Z,1038.04
2016-12-27T14:03:05.678Z,1038.03
2016-12-27T14:04:27.131Z,1038.01
2016-12-27T14:05:49.548Z,1038.17
2016-12-27T14:07:11.297Z,1038.07
2016-12-27T14:08:33.053Z,1038.15
2016-12-27T14:09:54.797Z,1038.23
2016-12-27T14:11:16.584Z,1038.21
2016-12-27T14:12:38.059Z,1038.33
2016-12-27T14:13:59.893Z,1038.33
2016-12-27T14:15:21.335Z,1038.37
2016-12-27T14:16:43.420Z,1038.48
2016-12-27T14:18:04.914Z,1038.41
2016-12-27T14:19:26.787Z,1038.37
2016-12-27T14:20:49.206Z,1038.45
2016-12-27T14:22:10.674Z,1038.48
2016-12-27T14:23:32.155Z,1038.5
2016-12-27T14:24:54.639Z,1038.54
2016-12-27T14:26:16.185Z,1038.58
2016-12-27T14:27:38.555Z,1038.57
2016-12-27T14:29:00.627Z,1038.6
2016-12-27T14:30:23.019Z,1038.66
2016-12-27T14:31:45.533Z,1038.65
2016-12-27T14:33:07.934Z,1038.55
2016-12-27T14:34:29.807Z,1038.62
2016-12-27T14:35:51.934Z,1038.54
2016-12-27T14:37:14.325Z,1038.5
2016-12-27T14:38:36.105Z,1038.53
2016-12-27T14:39:57.967Z,1038.6
2016-12-27T14:41:19.220Z,1038.57
2016-12-27T14:42:40.794Z,1038.6
2016-12-27T14:44:02.896Z,1038.58
2016-12-27T14:45:25.269Z,1038.62
2016-12-27T14:46:47.372Z,1038.52
2016-12-27T14:48:08.837Z,1038.52
2016-12-27T14:49:31.506Z,1038.38
2016-12-27T14:50:53.380Z,1038.36
2016-12-27T14:52:15.518Z,1038.36
2016-12-27T14:53:37.316Z,1038.4
2016-12-27T14:54:59.398Z,1038.39
2016-12-27T14:56:21.137Z,1038.47
2016-12-27T14:57:43.179Z,1038.4
2016-12-27T14:59:04.648Z,1038.55
2016-12-27T15:00:26.726Z,1038.51
2016-12-27T15:01:48.559Z,1038.5
2016-12-27T15:03:10.423Z,1038.56
2016-12-27T15:04:32.240Z,1038.62
2016-12-27T15:05:54.298Z,1038.6
2016-12-27T15:07:16.058Z,1038.62
2016-12-27T15:08:37.513Z,1038.64
2016-12-27T15:09:59.569Z,1038.74
2016-12-27T15:11:21.948Z,1038.7
2016-12-27T15:12:44.069Z,1038.73
2016-12-27T15:14:05.609Z,1038.7
2016-12-27T15:15:26.749Z,1038.73
2016-12-27T15:16:48.798Z,1038.71
2016-12-27T15:18:10.874Z,1038.81
2016-12-27T15:19:33.330Z,1038.78
2016-12-27T15:20:54.780Z,1038.85
2016-12-27T15:22:16.201Z,1038.8
2016-12-27T15:23:38.375Z,1038.8
2016-12-27T15:24:59.816Z,1038.9
2016-12-27T15:26:21.573Z,1038.85
2016-12-27T15:27:43.334Z,1038.87
2016-12-27T15:29:05.091Z,1038.92
2016-12-27T15:30:26.863Z,1038.88
2016-12-27T15:31:48.933Z,1038.94
2016-12-27T15:33:10.396Z,1038.93
2016-12-27T15:34:32.143Z,1038.94
2016-12-27T15:35:53.973Z,1038.98
2016-12-27T15:37:15.421Z,1039.01
2016-12-27T15:38:37.081Z,1038.95
2016-12-27T15:39:58.863Z,1038.91
2016-12-27T15:41:20.952Z,1038.9
2016-12-27T15:42:43.073Z,1038.88
2016-12-27T15:44:05.173Z,1038.9
2016-12-27T15:45:26.983Z,1038.91
2016-12-27T15:46:49.158Z,1038.92
2016-12-27T15:48:12.822Z,1038.96
2016-12-27T15:49:35.330Z,1038.96
2016-12-27T15:50:57.399Z,1038.95
2016-12-27T15:52:19.520Z,1039
2016-12-27T15:53:41.606Z,1039.14
2016-12-27T15:55:03.715Z,1038.98
2016-12-27T15:56:25.808Z,1039.06
2016-12-27T15:57:47.594Z,1038.96
2016-12-27T15:59:09.994Z,1039.07
2016-12-27T16:00:32.106Z,1039.06
2016-12-27T16:01:53.864Z,1039.13
2016-12-27T16:03:15.957Z,1039.19
2016-12-27T16:04:38.038Z,1039.17
2016-12-27T16:06:00.119Z,1039.2
2016-12-27T16:07:21.309Z,1039.26
2016-12-27T16:08:43.409Z,1039.27
2016-12-27T16:10:05.286Z,1039.33
2016-12-27T16:11:27.147Z,1039.37
2016-12-27T16:12:49.385Z,1039.45
2016-12-27T16:14:11.229Z,1039.42
2016-12-27T16:15:32.995Z,1039.37
2016-12-27T16:16:54.859Z,1039.4
2016-12-27T16:18:49.238Z,1039.5
2016-12-27T16:20:11.325Z,1039.5
2016-12-27T16:21:33.578Z,1039.48
2016-12-27T16:22:56.045Z,1039.56
2016-12-27T16:24:17.806Z,1039.59
2016-12-27T16:25:39.933Z,1039.55
2016-12-27T16:27:01.478Z,1039.52
2016-12-27T16:28:23.861Z,1039.54
2016-12-27T16:29:45.966Z,1039.47
2016-12-27T16:31:08.360Z,1039.47
2016-12-27T16:32:29.824Z,1039.5
2016-12-27T16:33:51.899Z,1039.48
2016-12-27T16:35:13.663Z,1039.56
2016-12-27T16:36:35.859Z,1039.52